7°C Temp
4°C Dewpoint
81% Humidity
Temperature
11 KM/H
7 MPH
6 KTS
200°
South South
West

Wind Speed
Overcast
Conditions
Pressure 1020.92 (hPa) - 30.15 (in)
Visibility 6.2 (mi) - 10.0 (km)

Current Conditions
EHLW
Location Leeuwarden Air Base 6km (3.2mi)
Metar :EHLW 202125Z AUTO 20006KT 9999 OVC062 07/04 Q1021 BLU
Wed 20th February 22:25 pm

Airport
  Metar Aviation API Data Provided by https://www.checkwx.com/ PHP scripts by weather34.com ©2019